CJR8 weather

Mccreary Airport
Mccreary, Manitoba, Canada

Public forecast

Using degrees Celsius for public forecast. Weather courtesy of forecast.io.

METAR (pilot weather report)

Closest report is Dauphin Barker Airport, 29.1 nm (54.0 km) NW. Retrieved 2019/05/21 12:00 UTC (54 minutes ago):

CYDN 211200Z AUTO 27004KT 9SM CLR 04/M01 A3012 RMK SLP210

TAF (pilot weather forecast)

Closest forecast is Dauphin Barker Airport, 29.1 nm (54.0 km) NW. Retrieved 2019/05/21 12:42 UTC (12 minutes ago):

TAF CYDN 211138Z 2112/2124 26006KT P6SM SKC BECMG 2114/2116 09012KT RMK FCST BASED ON AUTO OBS. NXT FCST BY 211800Z